createdAt,value
2023-02-28T00:00:33.732Z,7.07
2023-02-28T00:03:01.047Z,7.20
2023-02-28T00:05:29.332Z,7.22
2023-02-28T00:07:56.486Z,6.93
2023-02-28T00:10:27.611Z,6.95
2023-02-28T00:12:57.946Z,7.03
2023-02-28T00:15:25.231Z,7.18
2023-02-28T00:17:52.583Z,7.45
2023-02-28T00:20:20.189Z,6.60
2023-02-28T00:22:50.067Z,7.10
2023-02-28T00:25:20.686Z,6.85
2023-02-28T00:27:47.812Z,6.70
2023-02-28T00:30:17.879Z,7.03
2023-02-28T00:32:44.790Z,6.90
2023-02-28T00:35:12.537Z,6.60
2023-02-28T00:37:41.850Z,6.95
2023-02-28T00:40:10.225Z,6.80
2023-02-28T00:42:37.379Z,6.90
2023-02-28T00:45:09.635Z,7.25
2023-02-28T00:47:38.696Z,7.68
2023-02-28T00:50:06.610Z,7.30
2023-02-28T00:52:33.687Z,6.53
2023-02-28T00:55:00.642Z,6.88
2023-02-28T00:57:27.793Z,7.05
2023-02-28T00:59:55.488Z,6.47
2023-02-28T01:02:23.634Z,6.55
2023-02-28T01:04:53.242Z,6.60
2023-02-28T01:07:20.301Z,7.30
2023-02-28T01:09:47.190Z,7.32
2023-02-28T01:12:14.080Z,7.22
2023-02-28T01:14:40.966Z,6.70
2023-02-28T01:17:07.931Z,7.43
2023-02-28T01:19:35.603Z,7.78
2023-02-28T01:22:07.227Z,6.68
2023-02-28T01:24:35.349Z,7.45
2023-02-28T01:27:02.247Z,7.50
2023-02-28T01:29:29.047Z,7.75
2023-02-28T01:31:56.017Z,7.45
2023-02-28T01:34:23.006Z,8.27
2023-02-28T01:36:51.719Z,7.75
2023-02-28T01:39:19.461Z,8.75
2023-02-28T01:41:46.662Z,8.25
2023-02-28T01:44:51.075Z,7.95
2023-02-28T01:47:18.178Z,10.18
2023-02-28T01:49:45.760Z,8.30
2023-02-28T01:52:19.230Z,8.27
2023-02-28T01:54:52.062Z,8.45
2023-02-28T01:57:23.306Z,8.80
2023-02-28T01:59:59.615Z,8.27
2023-02-28T02:02:28.047Z,8.63
2023-02-28T02:04:59.758Z,8.20
2023-02-28T02:07:27.706Z,8.60
2023-02-28T02:10:17.208Z,9.00
2023-02-28T02:13:04.006Z,8.40
2023-02-28T02:15:37.765Z,8.20
2023-02-28T02:18:18.063Z,8.40
2023-02-28T02:21:14.611Z,7.55
2023-02-28T02:24:15.627Z,7.50
2023-02-28T02:26:51.349Z,7.00
2023-02-28T02:29:33.072Z,8.15
2023-02-28T02:32:05.967Z,7.30
2023-02-28T02:34:42.476Z,7.22
2023-02-28T02:37:15.327Z,6.85
2023-02-28T02:39:51.235Z,7.63
2023-02-28T02:42:26.479Z,8.82
2023-02-28T02:45:05.885Z,6.38
2023-02-28T02:47:34.282Z,6.60
2023-02-28T02:50:08.744Z,6.57
2023-02-28T02:52:44.815Z,6.72
2023-02-28T02:55:13.283Z,5.53
2023-02-28T02:57:49.323Z,6.90
2023-02-28T03:00:21.108Z,7.07
2023-02-28T03:02:50.354Z,6.55
2023-02-28T03:05:43.543Z,6.43
2023-02-28T03:08:10.378Z,6.45
2023-02-28T03:10:43.197Z,6.65
2023-02-28T03:13:19.109Z,6.60
2023-02-28T03:27:59.578Z,6.07
2023-02-28T03:30:54.817Z,6.80
2023-02-28T03:33:31.658Z,6.05
2023-02-28T03:36:03.969Z,6.50
2023-02-28T03:38:45.284Z,6.25
2023-02-28T03:41:20.766Z,6.80
2023-02-28T03:44:03.346Z,7.50
2023-02-28T03:46:36.300Z,7.45
2023-02-28T03:49:12.622Z,7.90
2023-02-28T03:51:42.728Z,8.07
2023-02-28T03:54:16.999Z,8.07
2023-02-28T03:56:56.617Z,6.57
2023-02-28T03:59:27.823Z,6.63
2023-02-28T04:01:56.251Z,6.88
2023-02-28T04:04:23.844Z,7.57
2023-02-28T04:06:52.782Z,7.68
2023-02-28T04:09:19.953Z,8.05
2023-02-28T04:11:52.915Z,8.65
2023-02-28T04:14:20.190Z,7.32
2023-02-28T04:16:47.188Z,7.45
2023-02-28T04:19:14.786Z,8.15
2023-02-28T04:21:44.280Z,7.35
2023-02-28T04:24:17.226Z,8.00
2023-02-28T04:26:50.582Z,8.80
2023-02-28T04:29:24.111Z,8.60
2023-02-28T04:31:51.545Z,7.87
2023-02-28T04:34:20.064Z,7.07
2023-02-28T04:37:11.490Z,8.25
2023-02-28T04:39:39.176Z,7.28
2023-02-28T04:42:06.044Z,8.48
2023-02-28T04:44:33.097Z,8.00
2023-02-28T04:47:00.019Z,8.75
2023-02-28T04:49:27.148Z,9.43
2023-02-28T04:51:54.184Z,8.77
2023-02-28T04:54:21.304Z,8.05
2023-02-28T04:56:50.887Z,9.18
2023-02-28T04:59:18.389Z,8.93
2023-02-28T05:01:50.196Z,9.23
2023-02-28T05:04:17.276Z,8.90
2023-02-28T05:06:44.188Z,9.68
2023-02-28T05:09:14.206Z,9.80
2023-02-28T05:11:41.737Z,9.82
2023-02-28T05:14:13.421Z,10.65
2023-02-28T05:16:40.466Z,10.63
2023-02-28T05:19:07.404Z,11.85
2023-02-28T05:21:52.352Z,11.32
2023-02-28T05:24:23.869Z,12.40
2023-02-28T05:26:53.897Z,11.82
2023-02-28T05:29:21.317Z,12.05
2023-02-28T05:31:48.641Z,10.90
2023-02-28T05:34:16.691Z,13.30
2023-02-28T05:36:43.668Z,11.90
2023-02-28T05:39:14.220Z,12.98
2023-02-28T05:41:43.235Z,11.75
2023-02-28T05:44:11.040Z,12.02
2023-02-28T05:46:37.964Z,13.10
2023-02-28T05:49:05.021Z,12.35
2023-02-28T05:51:32.338Z,12.27
2023-02-28T05:54:03.059Z,12.85
2023-02-28T05:56:30.166Z,14.43
2023-02-28T05:58:57.248Z,17.02
2023-02-28T06:01:49.341Z,22.48
2023-02-28T06:04:31.155Z,27.45
2023-02-28T06:06:59.301Z,14.00
2023-02-28T06:09:26.287Z,14.30
2023-02-28T06:11:53.258Z,12.02
2023-02-28T06:14:21.873Z,10.70
2023-02-28T06:16:48.794Z,11.50
2023-02-28T06:19:16.408Z,11.52
2023-02-28T06:21:43.718Z,11.70
2023-02-28T06:24:11.749Z,11.93
2023-02-28T06:26:39.058Z,11.45
2023-02-28T06:29:05.954Z,11.18
2023-02-28T06:31:33.478Z,9.95
2023-02-28T06:34:00.523Z,10.25
2023-02-28T06:36:27.367Z,9.52
2023-02-28T06:38:56.606Z,10.45
2023-02-28T06:41:25.508Z,10.30
2023-02-28T06:43:53.560Z,10.18
2023-02-28T06:46:21.279Z,11.60
2023-02-28T06:48:48.283Z,10.15
2023-02-28T06:51:21.500Z,12.85
2023-02-28T06:53:48.724Z,10.35
2023-02-28T06:56:17.098Z,12.13
2023-02-28T06:58:51.668Z,9.55
2023-02-28T07:01:18.911Z,10.10
2023-02-28T07:03:46.255Z,10.35
2023-02-28T07:06:13.560Z,9.73
2023-02-28T07:08:42.172Z,10.98
2023-02-28T07:11:09.321Z,11.63
2023-02-28T07:13:36.723Z,9.93
2023-02-28T07:16:06.485Z,11.00
2023-02-28T07:18:33.616Z,10.50
2023-02-28T07:21:03.150Z,11.10
2023-02-28T07:23:30.011Z,10.68
2023-02-28T07:25:56.918Z,12.00
2023-02-28T07:28:23.863Z,10.85
2023-02-28T07:30:50.888Z,9.23
2023-02-28T07:33:18.120Z,8.38
2023-02-28T07:35:45.172Z,8.82
2023-02-28T07:38:13.621Z,8.10
2023-02-28T07:40:41.004Z,8.95
2023-02-28T07:43:07.940Z,9.48
2023-02-28T07:45:37.598Z,9.27
2023-02-28T07:48:04.712Z,8.68
2023-02-28T07:50:32.269Z,8.52
2023-02-28T07:53:00.318Z,7.43
2023-02-28T07:55:27.630Z,8.25
2023-02-28T07:57:54.936Z,9.40
2023-02-28T08:00:22.779Z,7.97
2023-02-28T08:02:49.682Z,7.60
2023-02-28T08:05:16.966Z,8.82
2023-02-28T08:07:43.897Z,9.65
2023-02-28T08:10:11.371Z,8.35
2023-02-28T08:12:38.258Z,7.53
2023-02-28T08:15:05.526Z,8.90
2023-02-28T08:17:35.024Z,9.02
2023-02-28T08:20:02.301Z,7.13
2023-02-28T08:22:29.141Z,7.22
2023-02-28T08:24:56.211Z,6.78
2023-02-28T08:27:23.092Z,7.95
2023-02-28T08:29:49.899Z,7.28
2023-02-28T08:32:28.981Z,7.10
2023-02-28T08:34:56.884Z,6.55
2023-02-28T08:37:23.800Z,6.03
2023-02-28T08:39:50.636Z,7.03
2023-02-28T08:42:17.727Z,5.43
2023-02-28T08:44:44.585Z,7.35
2023-02-28T08:47:11.785Z,4.68
2023-02-28T08:49:38.976Z,4.50
2023-02-28T08:52:05.855Z,6.13
2023-02-28T08:54:34.350Z,5.03
2023-02-28T08:57:01.759Z,5.60
2023-02-28T08:59:28.704Z,5.25
2023-02-28T09:01:55.508Z,6.78
2023-02-28T09:04:25.183Z,5.30
2023-02-28T09:06:52.420Z,3.70
2023-02-28T09:09:19.376Z,4.80
2023-02-28T09:11:46.234Z,4.82
2023-02-28T09:14:13.092Z,4.63
2023-02-28T09:16:40.043Z,4.63
2023-02-28T09:19:06.941Z,3.53
2023-02-28T09:21:33.736Z,4.93
2023-02-28T09:24:00.609Z,4.22
2023-02-28T09:26:34.931Z,4.50
2023-02-28T09:29:10.099Z,5.13
2023-02-28T09:31:37.008Z,3.63
2023-02-28T09:34:05.529Z,4.15
2023-02-28T09:36:43.659Z,4.38
2023-02-28T09:39:11.779Z,3.95
2023-02-28T09:41:51.785Z,4.57
2023-02-28T09:44:31.524Z,5.93
2023-02-28T09:47:30.859Z,3.90
2023-02-28T09:50:04.417Z,3.05
2023-02-28T09:52:33.675Z,3.63
2023-02-28T09:55:20.779Z,3.65
2023-02-28T09:57:48.214Z,3.15
2023-02-28T10:00:28.778Z,3.05
2023-02-28T10:03:07.629Z,3.65
2023-02-28T10:05:43.500Z,3.25
2023-02-28T10:08:17.910Z,3.22
2023-02-28T10:10:48.250Z,2.67
2023-02-28T10:13:44.342Z,2.88
2023-02-28T10:16:25.834Z,2.95
2023-02-28T10:19:28.787Z,4.35
2023-02-28T10:22:02.844Z,2.85
2023-02-28T10:24:34.839Z,2.25
2023-02-28T10:27:15.944Z,3.65
2023-02-28T10:29:58.018Z,3.83
2023-02-28T10:32:29.951Z,2.63
2023-02-28T10:34:58.809Z,3.47
2023-02-28T10:37:25.842Z,2.65
2023-02-28T10:39:52.743Z,1.73
2023-02-28T10:42:34.241Z,3.08
2023-02-28T10:45:14.736Z,1.92
2023-02-28T10:47:56.572Z,2.30
2023-02-28T10:50:39.075Z,2.10
2023-02-28T10:53:59.591Z,4.13
2023-02-28T10:56:28.248Z,2.85
2023-02-28T10:58:59.446Z,2.47
2023-02-28T11:01:37.416Z,1.73
2023-02-28T11:04:04.898Z,2.53
2023-02-28T11:06:35.385Z,2.35
2023-02-28T11:09:08.066Z,1.95
2023-02-28T11:11:44.812Z,3.00
2023-02-28T11:14:25.727Z,1.70
2023-02-28T11:16:54.203Z,2.30
2023-02-28T11:19:28.254Z,2.67
2023-02-28T11:22:04.522Z,4.10
2023-02-28T11:24:31.386Z,4.07
2023-02-28T11:26:58.640Z,2.70
2023-02-28T11:29:31.672Z,3.78
2023-02-28T11:32:10.791Z,3.83
2023-02-28T11:34:39.165Z,3.05
2023-02-28T11:37:12.683Z,3.10
2023-02-28T11:39:41.341Z,2.23
2023-02-28T11:42:11.638Z,3.95
2023-02-28T11:45:00.099Z,2.28
2023-02-28T11:48:01.887Z,1.85
2023-02-28T11:50:51.924Z,2.83
2023-02-28T11:53:21.426Z,2.60
2023-02-28T11:56:20.760Z,1.98
2023-02-28T11:58:48.473Z,3.75
2023-02-28T12:01:50.498Z,1.60
2023-02-28T12:04:56.986Z,3.60
2023-02-28T12:07:27.472Z,3.63
2023-02-28T12:10:09.598Z,2.85
2023-02-28T12:13:05.104Z,3.10
2023-02-28T12:16:03.025Z,2.13
2023-02-28T12:18:39.777Z,3.75
2023-02-28T12:21:25.871Z,3.33
2023-02-28T12:24:06.930Z,2.95
2023-02-28T12:26:39.836Z,3.70
2023-02-28T12:29:29.855Z,2.63
2023-02-28T12:32:14.168Z,5.07
2023-02-28T12:35:07.316Z,2.53
2023-02-28T12:37:44.141Z,2.85
2023-02-28T12:40:23.185Z,2.95
2023-02-28T12:42:52.392Z,2.72
2023-02-28T12:45:22.441Z,3.28
2023-02-28T12:47:53.726Z,2.75
2023-02-28T12:50:21.184Z,2.75
2023-02-28T12:53:03.489Z,3.28
2023-02-28T12:55:58.114Z,3.15
2023-02-28T12:58:39.242Z,2.63
2023-02-28T13:01:12.193Z,2.75
2023-02-28T13:04:07.803Z,2.88
2023-02-28T13:06:34.614Z,3.78
2023-02-28T13:09:12.059Z,4.13
2023-02-28T13:11:46.442Z,4.00
2023-02-28T13:14:25.790Z,4.60
2023-02-28T13:17:02.433Z,3.00
2023-02-28T13:19:35.851Z,3.72
2023-02-28T13:22:03.659Z,2.92
2023-02-28T13:24:45.692Z,2.88
2023-02-28T13:27:25.820Z,3.65
2023-02-28T13:29:54.003Z,3.20
2023-02-28T13:32:31.367Z,3.00
2023-02-28T13:34:58.208Z,2.45
2023-02-28T13:37:33.793Z,3.05
2023-02-28T13:40:32.148Z,2.10
2023-02-28T13:42:59.048Z,2.67
2023-02-28T13:45:28.731Z,4.65
2023-02-28T13:48:06.956Z,2.92
2023-02-28T13:50:38.811Z,2.80
2023-02-28T13:53:15.005Z,3.13
2023-02-28T13:55:48.224Z,3.67
2023-02-28T13:58:37.134Z,3.33
2023-02-28T14:01:22.378Z,2.58
2023-02-28T14:04:07.696Z,2.95
2023-02-28T14:06:38.108Z,3.25
2023-02-28T14:09:24.629Z,3.75
2023-02-28T14:11:52.441Z,3.90
2023-02-28T14:14:37.613Z,11.40
2023-02-28T14:17:07.072Z,10.75
2023-02-28T14:19:37.577Z,12.15
2023-02-28T14:22:13.617Z,11.15
2023-02-28T14:25:09.343Z,11.93
2023-02-28T14:27:47.344Z,11.77
2023-02-28T14:30:38.185Z,11.40
2023-02-28T14:33:43.866Z,11.23
2023-02-28T14:36:17.136Z,12.30
2023-02-28T14:38:46.449Z,12.18
2023-02-28T14:41:38.426Z,10.63
2023-02-28T14:44:19.143Z,12.10
2023-02-28T14:46:49.414Z,13.20
2023-02-28T14:49:31.338Z,11.85
2023-02-28T14:52:10.940Z,10.10
2023-02-28T14:54:38.997Z,12.60
2023-02-28T14:57:06.566Z,12.63
2023-02-28T14:59:36.102Z,12.10
2023-02-28T15:02:21.405Z,12.02
2023-02-28T15:05:03.336Z,11.77
2023-02-28T15:07:30.590Z,11.95
2023-02-28T15:10:16.041Z,11.43
2023-02-28T15:12:50.613Z,11.68
2023-02-28T15:29:51.942Z,11.75
2023-02-28T15:32:37.107Z,13.68
2023-02-28T15:35:31.004Z,14.13
2023-02-28T15:38:03.451Z,12.73
2023-02-28T15:40:39.862Z,13.40
2023-02-28T15:43:24.455Z,13.35
2023-02-28T15:46:05.631Z,14.15
2023-02-28T15:48:40.624Z,14.60
2023-02-28T15:51:17.794Z,13.82
2023-02-28T15:54:08.728Z,12.32
2023-02-28T15:56:44.314Z,13.38
2023-02-28T15:59:22.109Z,13.75
2023-02-28T16:02:23.552Z,11.55
2023-02-28T16:05:18.885Z,14.15
2023-02-28T16:07:46.129Z,12.27
2023-02-28T16:10:15.243Z,14.38
2023-02-28T16:12:43.026Z,14.40
2023-02-28T16:15:20.314Z,13.73
2023-02-28T16:17:47.779Z,13.18
2023-02-28T16:20:16.218Z,14.20
2023-02-28T16:22:44.138Z,12.65
2023-02-28T16:25:16.558Z,11.38
2023-02-28T16:27:46.215Z,12.60
2023-02-28T16:30:25.499Z,12.40
2023-02-28T16:32:53.771Z,11.93
2023-02-28T16:35:21.872Z,11.77
2023-02-28T16:37:48.876Z,12.57
2023-02-28T16:40:18.218Z,11.38
2023-02-28T16:42:47.096Z,14.52
2023-02-28T16:45:28.436Z,15.30
2023-02-28T16:47:56.530Z,12.98
2023-02-28T16:50:31.539Z,19.60
2023-02-28T16:52:58.410Z,13.30
2023-02-28T16:55:27.176Z,15.07
2023-02-28T16:57:59.917Z,12.73
2023-02-28T17:00:28.952Z,12.70
2023-02-28T17:02:57.119Z,12.65
2023-02-28T17:05:25.004Z,12.57
2023-02-28T17:07:51.877Z,15.45
2023-02-28T17:10:21.671Z,12.70
2023-02-28T17:12:49.425Z,13.40
2023-02-28T17:15:18.973Z,12.10
2023-02-28T17:17:47.689Z,13.35
2023-02-28T17:20:16.315Z,14.23
2023-02-28T17:22:43.294Z,12.77
2023-02-28T17:25:11.531Z,12.23
2023-02-28T17:27:39.019Z,11.32
2023-02-28T17:30:16.521Z,12.07
2023-02-28T17:32:43.590Z,12.60
2023-02-28T17:35:10.647Z,14.18
2023-02-28T17:37:37.593Z,13.57
2023-02-28T17:40:05.436Z,13.60
2023-02-28T17:42:32.518Z,14.25
2023-02-28T17:44:59.341Z,12.77
2023-02-28T17:47:26.215Z,11.35
2023-02-28T17:49:53.017Z,12.25
2023-02-28T17:52:19.874Z,13.40
2023-02-28T17:54:46.712Z,13.52
2023-02-28T17:57:16.428Z,13.32
2023-02-28T17:59:43.960Z,13.95
2023-02-28T18:02:14.209Z,13.80
2023-02-28T18:04:41.069Z,14.32
2023-02-28T18:07:12.335Z,12.60
2023-02-28T18:09:39.490Z,14.10
2023-02-28T18:12:06.526Z,13.55
2023-02-28T18:14:33.435Z,12.15
2023-02-28T18:17:00.589Z,13.30
2023-02-28T18:19:27.568Z,13.23
2023-02-28T18:21:55.057Z,12.98
2023-02-28T18:24:24.678Z,15.35
2023-02-28T18:26:52.620Z,14.88
2023-02-28T18:29:25.514Z,16.50
2023-02-28T18:31:53.951Z,17.08
2023-02-28T18:34:21.416Z,19.77
2023-02-28T18:36:50.735Z,18.92
2023-02-28T18:39:18.775Z,20.73
2023-02-28T18:41:45.821Z,21.23
2023-02-28T18:44:19.978Z,21.33
2023-02-28T18:46:49.339Z,10.88
2023-02-28T18:49:16.712Z,6.40
2023-02-28T18:51:46.848Z,8.07
2023-02-28T18:54:15.049Z,9.52
2023-02-28T18:56:42.611Z,8.25
2023-02-28T18:59:11.122Z,8.90
2023-02-28T19:01:38.638Z,8.38
2023-02-28T19:04:06.569Z,8.45
2023-02-28T19:06:36.774Z,8.52
2023-02-28T19:09:04.235Z,9.93
2023-02-28T19:11:31.599Z,8.55
2023-02-28T19:13:58.602Z,7.07
2023-02-28T19:16:25.985Z,6.70
2023-02-28T19:18:53.020Z,7.68
2023-02-28T19:21:22.444Z,8.15
2023-02-28T19:23:49.401Z,7.18
2023-02-28T19:26:24.928Z,6.95
2023-02-28T19:28:51.884Z,6.60
2023-02-28T19:31:24.150Z,7.25
2023-02-28T19:33:53.099Z,6.43
2023-02-28T19:36:21.115Z,6.13
2023-02-28T19:38:48.687Z,6.32
2023-02-28T19:41:17.129Z,6.97
2023-02-28T19:43:44.138Z,6.15
2023-02-28T19:46:12.586Z,6.13
2023-02-28T19:48:40.313Z,6.47
2023-02-28T19:51:10.007Z,5.32
2023-02-28T19:53:38.872Z,6.63
2023-02-28T19:56:08.489Z,6.07
2023-02-28T19:58:36.232Z,6.57
2023-02-28T20:01:15.647Z,5.35
2023-02-28T20:03:43.070Z,5.97
2023-02-28T20:06:15.622Z,5.57
2023-02-28T20:08:43.404Z,6.43
2023-02-28T20:11:15.182Z,5.97
2023-02-28T20:13:42.845Z,5.75
2023-02-28T20:16:11.815Z,6.95
2023-02-28T20:18:39.787Z,6.55
2023-02-28T20:21:11.266Z,7.93
2023-02-28T20:23:39.336Z,5.63
2023-02-28T20:26:06.520Z,5.68
2023-02-28T20:28:33.482Z,6.50
2023-02-28T20:31:01.036Z,4.47
2023-02-28T20:33:28.100Z,4.75
2023-02-28T20:36:05.686Z,6.10
2023-02-28T20:38:32.731Z,7.50
2023-02-28T20:41:00.539Z,5.32
2023-02-28T20:43:28.110Z,5.85
2023-02-28T20:46:01.756Z,6.25
2023-02-28T20:48:33.376Z,5.47
2023-02-28T20:51:00.492Z,5.85
2023-02-28T20:53:28.133Z,5.80
2023-02-28T20:55:59.030Z,4.57
2023-02-28T20:58:28.380Z,4.90
2023-02-28T21:01:15.967Z,4.80
2023-02-28T21:03:48.149Z,4.50
2023-02-28T21:06:16.251Z,4.93
2023-02-28T21:08:43.661Z,7.13
2023-02-28T21:11:14.135Z,6.07
2023-02-28T21:13:43.582Z,5.95
2023-02-28T21:16:12.919Z,5.90
2023-02-28T21:18:40.458Z,5.68
2023-02-28T21:21:10.849Z,5.30
2023-02-28T21:23:37.821Z,5.45
2023-02-28T21:26:11.720Z,7.40
2023-02-28T21:28:44.072Z,6.18
2023-02-28T21:31:16.696Z,5.10
2023-02-28T21:33:44.512Z,6.07
2023-02-28T21:36:18.734Z,5.35
2023-02-28T21:38:47.196Z,6.13
2023-02-28T21:41:20.313Z,5.60
2023-02-28T21:43:48.425Z,6.22
2023-02-28T21:46:17.756Z,5.80
2023-02-28T21:48:44.888Z,5.95
2023-02-28T21:51:14.820Z,5.15
2023-02-28T21:53:42.150Z,5.57
2023-02-28T21:56:13.807Z,7.40
2023-02-28T21:58:41.644Z,5.38
2023-02-28T22:01:18.254Z,5.82
2023-02-28T22:03:46.049Z,5.40
2023-02-28T22:06:21.418Z,5.05
2023-02-28T22:08:52.204Z,4.75
2023-02-28T22:11:19.414Z,5.65
2023-02-28T22:13:48.752Z,5.45
2023-02-28T22:16:18.600Z,4.72
2023-02-28T22:18:45.817Z,4.43
2023-02-28T22:21:14.030Z,7.53
2023-02-28T22:23:42.193Z,4.82
2023-02-28T22:26:11.730Z,5.40
2023-02-28T22:28:38.981Z,5.32
2023-02-28T22:31:14.947Z,5.05
2023-02-28T22:33:42.216Z,7.60
2023-02-28T22:36:10.048Z,6.05
2023-02-28T22:38:37.011Z,5.50
2023-02-28T22:41:05.725Z,5.38
2023-02-28T22:43:33.053Z,5.15
2023-02-28T22:46:04.490Z,4.60
2023-02-28T22:48:31.466Z,4.72
2023-02-28T22:51:15.192Z,4.75
2023-02-28T22:53:44.372Z,4.72
2023-02-28T22:56:13.536Z,4.28
2023-02-28T22:58:40.415Z,4.30
2023-02-28T23:01:12.091Z,4.38
2023-02-28T23:03:40.141Z,4.10
2023-02-28T23:06:16.212Z,3.70
2023-02-28T23:08:43.855Z,4.75
2023-02-28T23:11:11.550Z,4.30
2023-02-28T23:13:38.413Z,4.38
2023-02-28T23:16:07.042Z,4.75
2023-02-28T23:18:34.225Z,4.22
2023-02-28T23:21:01.278Z,3.70
2023-02-28T23:23:28.119Z,4.80
2023-02-28T23:25:54.964Z,2.85
2023-02-28T23:28:23.139Z,4.35
2023-02-28T23:30:50.048Z,3.90
2023-02-28T23:33:17.115Z,3.03
2023-02-28T23:35:43.943Z,3.25
2023-02-28T23:38:10.917Z,4.00
2023-02-28T23:40:40.737Z,5.35
2023-02-28T23:43:07.524Z,4.22
2023-02-28T23:45:34.399Z,3.58
2023-02-28T23:48:01.303Z,3.97
2023-02-28T23:50:28.493Z,3.53
2023-02-28T23:52:55.514Z,3.08
2023-02-28T23:55:22.341Z,4.78
2023-02-28T23:57:49.183Z,3.90
